航空気象通報

ウインドサーファーのための航空気象通報による風予報です。

7/31-8/1の航空気象通報(国内、海外)

2010年07月31日 22時02分19秒 | TAF
羽田空港
TAF RJTT 310839Z 3109/0112 18008KT 9000 FEW030
BECMG 3116/3118 30004KT
TEMPO 3118/3121 4000 BR
BECMG 0100/0103 14010KT
日本時間31日18時-1日01時:180度から8ノットの風
01-03時:風が変化
03-09時:300度から4ノットの風
09-12時:風が変化
12-21時:140度から10ノットの風

但し、1日03-06時の間:一時、もや

富士山静岡空港
TAF RJNS 310839Z 3109/0112 26010KT 9000 FEW015
TEMPO 3118/3121 3000 BR BKN007 BKN012
日本時間31日18時-1日21時:260度から10ノットの風

但し、1日03-06時の間:一時、もや

那覇空港
TAF ROAH 310838Z 3109/0112 19007KT 9999 FEW015
日本時間31日18時-1日21時:190度から7ノットの風


マウイのカフルイ空港
TAF PHOG 311138Z 3112/0112 06015G22KT P6SM SCT050
FM312000 06022G32KT P6SM SCT050
FM010500 06015G22KT P6SM SCT050
ハワイ時間31日02-10時:060度から15ノットの風
10-19時:060度から22ノット、突風32ノット
19時-1日02時:060度から15ノット、突風22ノット


サイパン空港
TAF PGSN 311137Z 3112/0112 07008KT P6SM VCSH SCT020 SCT050
FM312200 10010KT P6SM VCSH SCT020
マリアナ時間31日22時-1日08時:070度から8ノットの風
08-22時:100度から10ノットの風

コメント
この記事をはてなブックマークに追加

7/30-7/31の航空気象通報(国内、海外)

2010年07月30日 22時51分38秒 | TAF
羽田空港
TAF RJTT 300844Z 3009/3112 19010KT 9999 FEW015 SCT030
BECMG 3014/3016 34004KT
BECMG 3100/3103 16010KT
日本時間30日18-23時:190度から10ノットの風
23時-31日01時:風が変化
01-09時:340度から4ノットの風
09-12時:風が変化
12-21時:160度から10ノットの風


富士山静岡空港
TAF RJNS 300845Z 3009/3112 25012KT 9999 FEW030
日本時間30日18時-31日21時:250度から12ノットの風


那覇空港
TAF ROAH 300849Z 3009/3112 19013KT 9999 FEW015
日本時間30日18時-31日21時:190度から13ノットの風


マウイのカフルイ空港
TAF PHOG 301135Z 3012/3112 05012KT P6SM SCT025 SCT050
TEMPO 3012/3014 05012G20KT
FM301800 07018G28KT P6SM FEW025 SCT050
ハワイ時間30日02-08時:050度から12ノットの風
但し、02-04時の間:050度から12ノット、突風20ノット
08時-31日02時:070度から18ノット、突風28ノット


サイパン空港
TAF PGSN 301139Z 3012/3112 09010KT P6SM VCSH FEW020 SCT100
マリアナ時間30日22時-31日22時:090度から10ノットの風

コメント
この記事をはてなブックマークに追加

7/29-7/30の航空気象通報(国内、海外)

2010年07月30日 00時08分17秒 | TAF
羽田空港
TAF RJTT 290848Z 2909/3012 19025G38KT 8000 -SHRA FEW008 SCT015 BKN040
TEMPO 2912/2915 3000 SHRA BR FEW004 BKN006
TEMPO 2915/2918 1200 TSRA BR FEW004 BKN006 FEW020CB
TEMPO 2918/2924 3000 SHRA BR FEW004 BKN006
TEMPO 3000/3003 4000 -SHRA BR FEW004 BKN006
BECMG 3006/3009 10008KT
日本時間29日18時-30日15時:190度から25ノット、突風38ノット
15-18時:風が変化
18-21時:100度から8ノットの風

但し、30日00-03時:一時、

富士山静岡空港
TAF RJNS 290844Z 2909/3012 22014KT 6000 -SHRA FEW005 BKN012
TEMPO 2909/2915 22018G28KT 3000 SHRA BR FEW003 BKN006
TEMPO 2915/2918 22018G28KT 1200 TSRA BR FEW002 BKN003 FEW020CB
TEMPO 2918/2924 3000 SHRA BR
日本時間29日18時-30日21時:220度から14ノットの風
但し、29日18時-30日03時の間:一時、220度から18ノット、突風28ノット

但し、30日00-03時の間:一時、

那覇空港
TAF AMD ROAH 291141Z 2911/3012 20014KT 9999 FEW015 SCT020
TEMPO 2911/2914 20018G30KT 2000 +TSRA SCT008 BKN020 SCT025CB
TEMPO 2916/2918 3000 SHRA
日本時間29日20時-30日21時:220度から14ノットの風
但し、29日20-23時の間:一時、200度から18ノット、突風30ノット

但し、29日20-23時の間:一時、
但し、30日01-03時の間:一時、

マウイのカフルイ空港
TAF PHOG 291133Z 2912/3012 04007KT P6SM VCSH FEW025 SCT050
FM292000 06018G27KT P6SM FEW030 SCT050
FM300500 06012KT P6SM FEW030 SCT050
ハワイ時間29日02-10時:040度から7ノットの風
10-19時:060度から18ノット、突風27ノット
19時-29日02時:060度から12ノットの風


サイパン空港
TAF AMD PGSN 291417Z 2914/3012 10011KT P6SM VCSH SCT018 SCT050 BKN120
TEMPO 2914/2917 08015G25KT -RA BKN015CB
マリアナ時間30日00-22時:100度から11ノットの風
但し、30日00-03時の間:一時、080度から15ノット、突風25ノット

但し、30日00-03時の間:一時、
コメント   トラックバック (1)
この記事をはてなブックマークに追加

7/28-7/29の航空気象通報(国内、海外)

2010年07月28日 21時54分16秒 | TAF
羽田空港
TAF RJTT 280841Z 2809/2912 20018KT 9999 FEW030
TEMPO 2809/2813 20022G32KT
TEMPO 2909/2912 4000 SHRA BR FEW006 BKN009
日本時間28日18時-29日21時:200度から18ノットの風
但し、28日18-22時:一時、200度から22ノット、突風32ノット

但し、29日18-21時:一時、

富士山静岡空港
TAF RJNS 280847Z 2809/2912 24006KT 9999 FEW010 SCT030
TEMPO 2818/2824 4000 -SHRA BR FEW005 BKN007
BECMG 2900/2903 4000 -SHRA BR FEW005 BKN009
TEMPO 2900/2906 3000 SHRA BR FEW003 BKN007
TEMPO 2906/2912 2000 TSRA BR FEW003 BKN007 FEW020CB
日本時間28日18時-29日21時:240度から6ノットの風
、29日09-12時の後、
但し、29日03-09時の間:一時、

那覇空港
TAF ROAH 280848Z 2809/2912 20015KT 9999 FEW010 SCT015
TEMPO 2821/2903 20018G30KT 3000 SHRA SCT010 BKN020 FEW025CB
日本時間28日18時-29日21時:200度から15ノットの風
但し、29日06-12時の間:一時、200度から18ノット、突風30ノット

但し、29日06-12時の間:一時、

マウイのカフルイ空港
TAF PHOG 281137Z 2812/2912 04004KT P6SM FEW030 SCT050
FM282000 05016G25KT P6SM FEW050
FM290500 04012G18KT P6SM FEW050
FM290800 04010KT P6SM FEW025 BKN045
ハワイ時間28日02-10時:040度から4ノットの風
10-19時:040度から12ノット、突風18ノット
19-22時:040度から12ノット、突風18ノット

22時-29日02時:040度から10ノットの風


サイパン空港
TAF PGSN 281141Z 2812/2912 09008KT P6SM VCSH SCT020
マリアナ時間28日22時-29日22時:090度から8ノットの風
コメント
この記事をはてなブックマークに追加

7/27-7/28の航空気象通報(国内、海外)

2010年07月28日 00時02分35秒 | TAF
羽田空港
TAF RJTT 270844Z 2709/2812 20015KT 9999 FEW030
TEMPO 2709/2712 20018G30KT
TEMPO 2806/2812 20022G32KT
日本時間27日18時-28日21時:200度から15ノットの風
但し、27日18-21時:200度から18ノット、突風30ノット
但し、28日15-21時:200度から22ノット、突風32ノット


富士山静岡空港
TAF RJNS 270842Z 2709/2812 24010KT 9999 FEW020
TEMPO 2718/2721 4000 BR
日本時間27日18時-28日21時:240度から10ノットの風

但し、28日03-06時の間:一時、もや

那覇空港
TAF ROAH 270842Z 2709/2812 18014KT 9999 SCT020
TEMPO 2718/2721 4000 SHRA FEW010 FEW025CB BKN030
TEMPO 2803/2806 4000 SHRA FEW010 FEW025CB BKN030
日本時間27日18時-28日21時:180度から14ノットの風

但し、28日03-06時の間:一時、
但し、28日12-15時の間:一時、

マウイのカフルイ空港
TAF PHOG 271137Z 2712/2812 05006KT P6SM FEW035 SCT050
FM272000 05015G23KT P6SM SCT050
FM280500 04012G18KT P6SM FEW050
FM280800 04007KT P6SM FEW040
ハワイ時間27日02-10時:050度から6ノットの風
10-19時:050度から15ノット、突風23ノット
19-22時:040度から12ノット、突風18ノット
22時-28日02時:040度から7ノットの風


サイパン空港
TAF PGSN 271134Z 2712/2812 08010KT P6SM VCSH SCT020
マリアナ時間27日22時-28日22時:080度から10ノットの風

コメント
この記事をはてなブックマークに追加